sensor_id;sensor_type;location;lat;lon;timestamp;P1;durP1;ratioP1;P2;durP2;ratioP2
60239;SDS011;46102;39.012;-7.064;2023-03-16T00:01:34;4.78;;;2.90;;
60239;SDS011;46102;39.012;-7.064;2023-03-16T00:03:34;3.80;;;1.90;;
60239;SDS011;46102;39.012;-7.064;2023-03-16T00:05:35;2.17;;;1.98;;
60239;SDS011;46102;39.012;-7.064;2023-03-16T00:07:36;4.55;;;1.90;;
60239;SDS011;46102;39.012;-7.064;2023-03-16T00:09:37;2.95;;;2.00;;
60239;SDS011;46102;39.012;-7.064;2023-03-16T00:11:41;2.63;;;1.88;;
60239;SDS011;46102;39.012;-7.064;2023-03-16T00:13:42;4.22;;;2.70;;
60239;SDS011;46102;39.012;-7.064;2023-03-16T00:15:49;7.97;;;3.10;;
60239;SDS011;46102;39.012;-7.064;2023-03-16T00:17:52;3.92;;;2.17;;
60239;SDS011;46102;39.012;-7.064;2023-03-16T00:19:54;1.67;;;1.42;;
60239;SDS011;46102;39.012;-7.064;2023-03-16T00:21:56;1.88;;;1.58;;
60239;SDS011;46102;39.012;-7.064;2023-03-16T00:23:57;4.28;;;1.85;;
60239;SDS011;46102;39.012;-7.064;2023-03-16T00:25:58;4.90;;;2.00;;
60239;SDS011;46102;39.012;-7.064;2023-03-16T00:28:02;4.47;;;1.73;;
60239;SDS011;46102;39.012;-7.064;2023-03-16T00:30:03;4.80;;;1.75;;
60239;SDS011;46102;39.012;-7.064;2023-03-16T00:32:05;3.40;;;1.85;;
60239;SDS011;46102;39.012;-7.064;2023-03-16T00:34:06;2.95;;;1.73;;
60239;SDS011;46102;39.012;-7.064;2023-03-16T00:36:06;5.32;;;1.52;;
60239;SDS011;46102;39.012;-7.064;2023-03-16T00:38:08;6.88;;;1.50;;
60239;SDS011;46102;39.012;-7.064;2023-03-16T00:40:09;5.03;;;1.50;;
60239;SDS011;46102;39.012;-7.064;2023-03-16T00:42:14;2.10;;;1.40;;
60239;SDS011;46102;39.012;-7.064;2023-03-16T00:44:16;2.90;;;1.40;;
60239;SDS011;46102;39.012;-7.064;2023-03-16T00:46:17;3.75;;;1.50;;
60239;SDS011;46102;39.012;-7.064;2023-03-16T00:48:18;4.97;;;1.25;;
60239;SDS011;46102;39.012;-7.064;2023-03-16T00:50:20;6.30;;;1.80;;
60239;SDS011;46102;39.012;-7.064;2023-03-16T00:52:21;3.05;;;1.48;;
60239;SDS011;46102;39.012;-7.064;2023-03-16T00:54:23;6.90;;;2.00;;
60239;SDS011;46102;39.012;-7.064;2023-03-16T00:56:26;3.10;;;1.20;;
60239;SDS011;46102;39.012;-7.064;2023-03-16T00:58:27;2.85;;;1.48;;
60239;SDS011;46102;39.012;-7.064;2023-03-16T01:00:28;4.15;;;1.23;;
60239;SDS011;46102;39.012;-7.064;2023-03-16T01:02:29;2.55;;;1.77;;
60239;SDS011;46102;39.012;-7.064;2023-03-16T01:04:29;2.10;;;1.90;;
60239;SDS011;46102;39.012;-7.064;2023-03-16T01:06:33;2.65;;;2.05;;
60239;SDS011;46102;39.012;-7.064;2023-03-16T01:08:33;2.55;;;1.60;;
60239;SDS011;46102;39.012;-7.064;2023-03-16T01:10:34;2.92;;;2.05;;
60239;SDS011;46102;39.012;-7.064;2023-03-16T01:12:36;2.17;;;1.85;;
60239;SDS011;46102;39.012;-7.064;2023-03-16T01:14:37;5.38;;;1.95;;
60239;SDS011;46102;39.012;-7.064;2023-03-16T01:16:38;2.33;;;1.60;;
60239;SDS011;46102;39.012;-7.064;2023-03-16T01:18:39;3.70;;;2.13;;
60239;SDS011;46102;39.012;-7.064;2023-03-16T01:20:40;3.33;;;2.53;;
60239;SDS011;46102;39.012;-7.064;2023-03-16T01:22:49;4.65;;;2.78;;
60239;SDS011;46102;39.012;-7.064;2023-03-16T01:24:50;4.97;;;2.88;;
60239;SDS011;46102;39.012;-7.064;2023-03-16T01:26:51;6.65;;;3.92;;
60239;SDS011;46102;39.012;-7.064;2023-03-16T01:28:52;7.97;;;2.30;;
60239;SDS011;46102;39.012;-7.064;2023-03-16T01:30:54;4.03;;;2.70;;
60239;SDS011;46102;39.012;-7.064;2023-03-16T01:32:58;3.75;;;3.03;;
60239;SDS011;46102;39.012;-7.064;2023-03-16T01:34:59;3.45;;;2.30;;
60239;SDS011;46102;39.012;-7.064;2023-03-16T01:37:00;2.75;;;2.40;;
60239;SDS011;46102;39.012;-7.064;2023-03-16T01:39:24;8.23;;;2.40;;
60239;SDS011;46102;39.012;-7.064;2023-03-16T01:41:25;5.78;;;1.63;;
60239;SDS011;46102;39.012;-7.064;2023-03-16T01:43:27;3.80;;;2.20;;
60239;SDS011;46102;39.012;-7.064;2023-03-16T01:48:15;3.38;;;1.80;;
60239;SDS011;46102;39.012;-7.064;2023-03-16T01:50:16;3.58;;;1.83;;
60239;SDS011;46102;39.012;-7.064;2023-03-16T01:52:18;2.95;;;1.67;;
60239;SDS011;46102;39.012;-7.064;2023-03-16T01:54:25;7.15;;;2.08;;
60239;SDS011;46102;39.012;-7.064;2023-03-16T01:56:32;5.65;;;2.22;;
60239;SDS011;46102;39.012;-7.064;2023-03-16T01:58:39;1.98;;;1.63;;
60239;SDS011;46102;39.012;-7.064;2023-03-16T02:00:42;4.93;;;1.85;;
60239;SDS011;46102;39.012;-7.064;2023-03-16T02:02:55;3.85;;;1.98;;
60239;SDS011;46102;39.012;-7.064;2023-03-16T02:05:12;4.63;;;1.85;;
60239;SDS011;46102;39.012;-7.064;2023-03-16T02:07:17;2.40;;;1.95;;
60239;SDS011;46102;39.012;-7.064;2023-03-16T02:09:20;2.28;;;1.80;;
60239;SDS011;46102;39.012;-7.064;2023-03-16T02:11:23;2.42;;;1.70;;
60239;SDS011;46102;39.012;-7.064;2023-03-16T02:13:44;5.05;;;1.90;;
60239;SDS011;46102;39.012;-7.064;2023-03-16T02:15:48;4.47;;;2.10;;
60239;SDS011;46102;39.012;-7.064;2023-03-16T02:22:30;2.75;;;1.30;;
60239;SDS011;46102;39.012;-7.064;2023-03-16T02:24:36;3.50;;;1.67;;
60239;SDS011;46102;39.012;-7.064;2023-03-16T02:28:52;4.32;;;1.95;;
60239;SDS011;46102;39.012;-7.064;2023-03-16T02:31:04;4.03;;;1.88;;
60239;SDS011;46102;39.012;-7.064;2023-03-16T02:33:06;4.68;;;2.08;;
60239;SDS011;46102;39.012;-7.064;2023-03-16T02:35:08;3.50;;;2.15;;
60239;SDS011;46102;39.012;-7.064;2023-03-16T02:37:10;4.00;;;1.88;;
60239;SDS011;46102;39.012;-7.064;2023-03-16T02:39:13;4.15;;;1.80;;
60239;SDS011;46102;39.012;-7.064;2023-03-16T02:41:19;4.88;;;1.98;;
60239;SDS011;46102;39.012;-7.064;2023-03-16T02:43:27;3.03;;;1.65;;
60239;SDS011;46102;39.012;-7.064;2023-03-16T02:45:45;2.80;;;1.70;;
60239;SDS011;46102;39.012;-7.064;2023-03-16T02:47:49;4.13;;;2.55;;
60239;SDS011;46102;39.012;-7.064;2023-03-16T02:49:53;7.88;;;2.17;;
60239;SDS011;46102;39.012;-7.064;2023-03-16T02:51:54;4.75;;;2.08;;
60239;SDS011;46102;39.012;-7.064;2023-03-16T02:53:57;6.50;;;2.27;;
60239;SDS011;46102;39.012;-7.064;2023-03-16T02:56:00;4.68;;;2.05;;
60239;SDS011;46102;39.012;-7.064;2023-03-16T02:58:03;4.80;;;2.70;;
60239;SDS011;46102;39.012;-7.064;2023-03-16T03:00:04;3.08;;;2.15;;
60239;SDS011;46102;39.012;-7.064;2023-03-16T03:02:13;7.25;;;2.70;;
60239;SDS011;46102;39.012;-7.064;2023-03-16T03:04:14;9.95;;;3.15;;
60239;SDS011;46102;39.012;-7.064;2023-03-16T03:06:15;8.48;;;2.70;;
60239;SDS011;46102;39.012;-7.064;2023-03-16T03:08:16;7.53;;;2.65;;
60239;SDS011;46102;39.012;-7.064;2023-03-16T03:10:20;3.55;;;2.22;;
60239;SDS011;46102;39.012;-7.064;2023-03-16T03:12:22;6.70;;;2.22;;
60239;SDS011;46102;39.012;-7.064;2023-03-16T03:14:22;4.47;;;2.05;;
60239;SDS011;46102;39.012;-7.064;2023-03-16T03:16:25;3.10;;;2.17;;
60239;SDS011;46102;39.012;-7.064;2023-03-16T03:18:27;2.65;;;1.67;;
60239;SDS011;46102;39.012;-7.064;2023-03-16T03:20:28;6.47;;;1.95;;
60239;SDS011;46102;39.012;-7.064;2023-03-16T03:22:29;2.67;;;1.90;;
60239;SDS011;46102;39.012;-7.064;2023-03-16T03:24:30;6.85;;;2.03;;
60239;SDS011;46102;39.012;-7.064;2023-03-16T03:26:32;6.07;;;1.88;;
60239;SDS011;46102;39.012;-7.064;2023-03-16T03:28:34;5.70;;;2.35;;
60239;SDS011;46102;39.012;-7.064;2023-03-16T03:30:35;7.68;;;1.98;;
60239;SDS011;46102;39.012;-7.064;2023-03-16T03:32:38;4.25;;;2.08;;
60239;SDS011;46102;39.012;-7.064;2023-03-16T03:34:39;5.50;;;1.90;;
60239;SDS011;46102;39.012;-7.064;2023-03-16T03:36:41;2.67;;;1.95;;
60239;SDS011;46102;39.012;-7.064;2023-03-16T03:38:42;5.05;;;2.10;;
60239;SDS011;46102;39.012;-7.064;2023-03-16T03:40:43;5.07;;;1.75;;
60239;SDS011;46102;39.012;-7.064;2023-03-16T03:42:46;3.28;;;1.67;;
60239;SDS011;46102;39.012;-7.064;2023-03-16T03:44:47;7.20;;;2.28;;
60239;SDS011;46102;39.012;-7.064;2023-03-16T03:46:48;3.92;;;2.53;;
60239;SDS011;46102;39.012;-7.064;2023-03-16T03:48:51;6.20;;;3.58;;
60239;SDS011;46102;39.012;-7.064;2023-03-16T03:50:52;6.00;;;3.60;;
60239;SDS011;46102;39.012;-7.064;2023-03-16T03:53:12;6.40;;;4.38;;
60239;SDS011;46102;39.012;-7.064;2023-03-16T03:55:35;6.35;;;4.03;;
60239;SDS011;46102;39.012;-7.064;2023-03-16T03:57:36;6.35;;;3.83;;
60239;SDS011;46102;39.012;-7.064;2023-03-16T03:59:37;3.38;;;2.83;;
60239;SDS011;46102;39.012;-7.064;2023-03-16T04:01:54;3.22;;;2.47;;
60239;SDS011;46102;39.012;-7.064;2023-03-16T04:03:58;4.82;;;2.42;;
60239;SDS011;46102;39.012;-7.064;2023-03-16T04:05:59;4.93;;;1.88;;
60239;SDS011;46102;39.012;-7.064;2023-03-16T04:08:01;4.07;;;2.47;;
60239;SDS011;46102;39.012;-7.064;2023-03-16T04:10:02;2.50;;;1.60;;
60239;SDS011;46102;39.012;-7.064;2023-03-16T04:12:10;3.90;;;2.00;;
60239;SDS011;46102;39.012;-7.064;2023-03-16T04:14:11;2.90;;;1.75;;
60239;SDS011;46102;39.012;-7.064;2023-03-16T04:16:13;2.90;;;2.08;;
60239;SDS011;46102;39.012;-7.064;2023-03-16T04:18:16;1.98;;;1.83;;
60239;SDS011;46102;39.012;-7.064;2023-03-16T04:20:17;3.58;;;2.30;;
60239;SDS011;46102;39.012;-7.064;2023-03-16T04:22:20;4.72;;;2.30;;
60239;SDS011;46102;39.012;-7.064;2023-03-16T04:24:23;3.30;;;2.60;;
60239;SDS011;46102;39.012;-7.064;2023-03-16T04:26:24;4.55;;;2.80;;
60239;SDS011;46102;39.012;-7.064;2023-03-16T04:28:26;5.05;;;2.80;;
60239;SDS011;46102;39.012;-7.064;2023-03-16T04:30:27;6.07;;;3.97;;
60239;SDS011;46102;39.012;-7.064;2023-03-16T04:32:39;7.10;;;3.53;;
60239;SDS011;46102;39.012;-7.064;2023-03-16T04:34:41;6.97;;;2.80;;
60239;SDS011;46102;39.012;-7.064;2023-03-16T04:36:44;5.20;;;2.78;;
60239;SDS011;46102;39.012;-7.064;2023-03-16T04:38:45;7.57;;;1.75;;
60239;SDS011;46102;39.012;-7.064;2023-03-16T04:40:46;2.60;;;1.45;;
60239;SDS011;46102;39.012;-7.064;2023-03-16T04:42:51;2.28;;;1.23;;
60239;SDS011;46102;39.012;-7.064;2023-03-16T04:44:53;4.40;;;1.45;;
60239;SDS011;46102;39.012;-7.064;2023-03-16T04:46:55;4.65;;;1.42;;
60239;SDS011;46102;39.012;-7.064;2023-03-16T04:48:58;3.72;;;1.48;;
60239;SDS011;46102;39.012;-7.064;2023-03-16T04:51:01;5.70;;;1.65;;
60239;SDS011;46102;39.012;-7.064;2023-03-16T04:53:06;2.72;;;1.30;;
60239;SDS011;46102;39.012;-7.064;2023-03-16T04:55:07;2.30;;;1.40;;
60239;SDS011;46102;39.012;-7.064;2023-03-16T04:57:10;4.68;;;1.60;;
60239;SDS011;46102;39.012;-7.064;2023-03-16T04:59:16;4.53;;;2.30;;
60239;SDS011;46102;39.012;-7.064;2023-03-16T05:01:35;9.93;;;1.88;;
60239;SDS011;46102;39.012;-7.064;2023-03-16T05:03:37;4.97;;;2.85;;
60239;SDS011;46102;39.012;-7.064;2023-03-16T05:05:39;2.53;;;2.15;;
60239;SDS011;46102;39.012;-7.064;2023-03-16T05:07:41;7.97;;;3.35;;
60239;SDS011;46102;39.012;-7.064;2023-03-16T05:09:42;2.33;;;2.13;;
60239;SDS011;46102;39.012;-7.064;2023-03-16T05:11:43;5.20;;;2.75;;
60239;SDS011;46102;39.012;-7.064;2023-03-16T05:13:45;5.72;;;2.67;;
60239;SDS011;46102;39.012;-7.064;2023-03-16T05:15:46;10.60;;;2.50;;
60239;SDS011;46102;39.012;-7.064;2023-03-16T05:17:56;5.32;;;2.33;;
60239;SDS011;46102;39.012;-7.064;2023-03-16T05:19:57;3.40;;;2.03;;
60239;SDS011;46102;39.012;-7.064;2023-03-16T05:21:58;3.75;;;2.28;;
60239;SDS011;46102;39.012;-7.064;2023-03-16T05:23:59;8.27;;;3.03;;
60239;SDS011;46102;39.012;-7.064;2023-03-16T05:26:00;6.07;;;2.95;;
60239;SDS011;46102;39.012;-7.064;2023-03-16T05:28:04;12.45;;;3.88;;
60239;SDS011;46102;39.012;-7.064;2023-03-16T05:30:13;6.75;;;3.00;;
60239;SDS011;46102;39.012;-7.064;2023-03-16T05:32:16;3.50;;;3.22;;
60239;SDS011;46102;39.012;-7.064;2023-03-16T05:34:18;6.68;;;3.15;;
60239;SDS011;46102;39.012;-7.064;2023-03-16T05:36:19;3.95;;;3.65;;
60239;SDS011;46102;39.012;-7.064;2023-03-16T05:40:24;10.65;;;3.13;;
60239;SDS011;46102;39.012;-7.064;2023-03-16T05:42:35;5.15;;;3.58;;
60239;SDS011;46102;39.012;-7.064;2023-03-16T05:44:36;7.93;;;3.20;;
60239;SDS011;46102;39.012;-7.064;2023-03-16T05:46:37;4.38;;;3.00;;
60239;SDS011;46102;39.012;-7.064;2023-03-16T05:48:39;3.75;;;3.20;;
60239;SDS011;46102;39.012;-7.064;2023-03-16T05:50:41;12.75;;;2.67;;
60239;SDS011;46102;39.012;-7.064;2023-03-16T05:52:43;4.20;;;2.80;;
60239;SDS011;46102;39.012;-7.064;2023-03-16T05:54:51;5.88;;;2.72;;
60239;SDS011;46102;39.012;-7.064;2023-03-16T05:56:52;4.82;;;2.30;;
60239;SDS011;46102;39.012;-7.064;2023-03-16T05:58:54;3.85;;;2.42;;
60239;SDS011;46102;39.012;-7.064;2023-03-16T06:00:57;7.20;;;2.78;;
60239;SDS011;46102;39.012;-7.064;2023-03-16T06:03:03;3.58;;;2.40;;
60239;SDS011;46102;39.012;-7.064;2023-03-16T06:05:08;5.90;;;2.53;;
60239;SDS011;46102;39.012;-7.064;2023-03-16T06:07:12;3.28;;;1.85;;
60239;SDS011;46102;39.012;-7.064;2023-03-16T06:09:13;8.30;;;2.17;;
60239;SDS011;46102;39.012;-7.064;2023-03-16T06:11:15;4.50;;;1.88;;
60239;SDS011;46102;39.012;-7.064;2023-03-16T06:13:17;7.75;;;2.95;;
60239;SDS011;46102;39.012;-7.064;2023-03-16T06:15:18;8.27;;;2.85;;
60239;SDS011;46102;39.012;-7.064;2023-03-16T06:17:19;5.72;;;2.90;;
60239;SDS011;46102;39.012;-7.064;2023-03-16T06:19:20;4.68;;;2.80;;
60239;SDS011;46102;39.012;-7.064;2023-03-16T06:21:26;5.55;;;2.92;;
60239;SDS011;46102;39.012;-7.064;2023-03-16T06:23:29;9.60;;;2.80;;
60239;SDS011;46102;39.012;-7.064;2023-03-16T06:25:32;4.00;;;2.47;;
60239;SDS011;46102;39.012;-7.064;2023-03-16T06:27:32;4.28;;;2.17;;
60239;SDS011;46102;39.012;-7.064;2023-03-16T06:29:43;4.60;;;2.10;;
60239;SDS011;46102;39.012;-7.064;2023-03-16T06:31:43;2.35;;;2.15;;
60239;SDS011;46102;39.012;-7.064;2023-03-16T06:33:45;5.07;;;2.53;;
60239;SDS011;46102;39.012;-7.064;2023-03-16T06:35:46;6.65;;;2.30;;
60239;SDS011;46102;39.012;-7.064;2023-03-16T06:37:58;5.38;;;1.85;;
60239;SDS011;46102;39.012;-7.064;2023-03-16T06:40:12;7.75;;;2.00;;
60239;SDS011;46102;39.012;-7.064;2023-03-16T06:42:14;4.03;;;1.88;;
60239;SDS011;46102;39.012;-7.064;2023-03-16T06:44:14;3.83;;;1.92;;
60239;SDS011;46102;39.012;-7.064;2023-03-16T06:46:26;11.35;;;2.47;;
60239;SDS011;46102;39.012;-7.064;2023-03-16T06:48:27;3.08;;;1.90;;
60239;SDS011;46102;39.012;-7.064;2023-03-16T06:50:28;2.08;;;1.85;;
60239;SDS011;46102;39.012;-7.064;2023-03-16T06:52:29;4.13;;;2.55;;
60239;SDS011;46102;39.012;-7.064;2023-03-16T06:54:31;2.13;;;1.50;;
60239;SDS011;46102;39.012;-7.064;2023-03-16T06:56:35;2.67;;;1.73;;
60239;SDS011;46102;39.012;-7.064;2023-03-16T06:58:36;2.53;;;1.73;;
60239;SDS011;46102;39.012;-7.064;2023-03-16T07:00:36;3.30;;;1.83;;
60239;SDS011;46102;39.012;-7.064;2023-03-16T07:02:37;3.60;;;1.92;;
60239;SDS011;46102;39.012;-7.064;2023-03-16T07:04:41;5.85;;;1.90;;
60239;SDS011;46102;39.012;-7.064;2023-03-16T07:06:43;7.00;;;1.90;;
60239;SDS011;46102;39.012;-7.064;2023-03-16T07:08:44;2.22;;;1.40;;
60239;SDS011;46102;39.012;-7.064;2023-03-16T07:10:45;5.22;;;2.10;;
60239;SDS011;46102;39.012;-7.064;2023-03-16T07:12:47;4.43;;;2.00;;
60239;SDS011;46102;39.012;-7.064;2023-03-16T07:14:47;2.10;;;1.48;;
60239;SDS011;46102;39.012;-7.064;2023-03-16T07:16:48;5.15;;;1.70;;
60239;SDS011;46102;39.012;-7.064;2023-03-16T07:18:50;2.70;;;1.50;;
60239;SDS011;46102;39.012;-7.064;2023-03-16T07:20:53;4.97;;;1.92;;
60239;SDS011;46102;39.012;-7.064;2023-03-16T07:22:56;2.67;;;1.85;;
60239;SDS011;46102;39.012;-7.064;2023-03-16T07:24:57;3.00;;;1.75;;
60239;SDS011;46102;39.012;-7.064;2023-03-16T07:27:00;2.88;;;1.98;;
60239;SDS011;46102;39.012;-7.064;2023-03-16T07:29:04;2.38;;;1.95;;
60239;SDS011;46102;39.012;-7.064;2023-03-16T07:31:08;2.40;;;1.80;;
60239;SDS011;46102;39.012;-7.064;2023-03-16T07:33:12;6.47;;;1.60;;
60239;SDS011;46102;39.012;-7.064;2023-03-16T07:35:13;4.65;;;2.22;;
60239;SDS011;46102;39.012;-7.064;2023-03-16T07:37:14;4.07;;;2.28;;
60239;SDS011;46102;39.012;-7.064;2023-03-16T07:39:17;3.90;;;2.00;;
60239;SDS011;46102;39.012;-7.064;2023-03-16T07:41:20;3.42;;;2.50;;
60239;SDS011;46102;39.012;-7.064;2023-03-16T07:43:20;6.38;;;2.03;;
60239;SDS011;46102;39.012;-7.064;2023-03-16T07:45:24;4.50;;;1.85;;
60239;SDS011;46102;39.012;-7.064;2023-03-16T07:47:25;3.00;;;2.28;;
60239;SDS011;46102;39.012;-7.064;2023-03-16T07:49:28;5.18;;;1.67;;
60239;SDS011;46102;39.012;-7.064;2023-03-16T07:51:31;2.85;;;1.98;;
60239;SDS011;46102;39.012;-7.064;2023-03-16T07:53:32;4.60;;;2.17;;
60239;SDS011;46102;39.012;-7.064;2023-03-16T07:57:47;2.08;;;1.63;;
60239;SDS011;46102;39.012;-7.064;2023-03-16T07:59:52;2.83;;;1.63;;
60239;SDS011;46102;39.012;-7.064;2023-03-16T08:01:52;2.08;;;1.40;;
60239;SDS011;46102;39.012;-7.064;2023-03-16T08:03:53;7.22;;;1.92;;
60239;SDS011;46102;39.012;-7.064;2023-03-16T08:05:54;3.80;;;2.33;;
60239;SDS011;46102;39.012;-7.064;2023-03-16T08:07:55;6.82;;;2.00;;
60239;SDS011;46102;39.012;-7.064;2023-03-16T08:09:58;3.80;;;1.60;;
60239;SDS011;46102;39.012;-7.064;2023-03-16T08:12:06;3.38;;;2.00;;
60239;SDS011;46102;39.012;-7.064;2023-03-16T08:14:09;2.47;;;1.63;;
60239;SDS011;46102;39.012;-7.064;2023-03-16T08:16:27;2.25;;;1.52;;
60239;SDS011;46102;39.012;-7.064;2023-03-16T08:18:28;4.30;;;1.63;;
60239;SDS011;46102;39.012;-7.064;2023-03-16T08:20:29;3.80;;;1.98;;
60239;SDS011;46102;39.012;-7.064;2023-03-16T08:22:30;2.45;;;1.77;;
60239;SDS011;46102;39.012;-7.064;2023-03-16T08:24:32;2.83;;;1.83;;
60239;SDS011;46102;39.012;-7.064;2023-03-16T08:26:33;4.10;;;1.75;;
60239;SDS011;46102;39.012;-7.064;2023-03-16T08:28:37;4.82;;;2.00;;
60239;SDS011;46102;39.012;-7.064;2023-03-16T08:30:43;4.75;;;1.60;;
60239;SDS011;46102;39.012;-7.064;2023-03-16T08:32:55;3.58;;;1.88;;
60239;SDS011;46102;39.012;-7.064;2023-03-16T08:34:57;4.07;;;1.50;;
60239;SDS011;46102;39.012;-7.064;2023-03-16T08:36:59;4.72;;;2.05;;
60239;SDS011;46102;39.012;-7.064;2023-03-16T08:39:00;4.07;;;1.60;;
60239;SDS011;46102;39.012;-7.064;2023-03-16T08:41:02;2.90;;;1.65;;
60239;SDS011;46102;39.012;-7.064;2023-03-16T08:43:02;3.50;;;1.90;;
60239;SDS011;46102;39.012;-7.064;2023-03-16T08:45:05;6.57;;;1.85;;
60239;SDS011;46102;39.012;-7.064;2023-03-16T08:47:10;3.20;;;1.88;;
60239;SDS011;46102;39.012;-7.064;2023-03-16T08:49:13;2.67;;;1.92;;
60239;SDS011;46102;39.012;-7.064;2023-03-16T08:51:15;2.08;;;1.65;;
60239;SDS011;46102;39.012;-7.064;2023-03-16T08:53:16;4.20;;;1.90;;
60239;SDS011;46102;39.012;-7.064;2023-03-16T08:55:18;3.00;;;1.80;;
60239;SDS011;46102;39.012;-7.064;2023-03-16T08:57:18;4.07;;;2.00;;
60239;SDS011;46102;39.012;-7.064;2023-03-16T08:59:20;5.68;;;2.10;;
60239;SDS011;46102;39.012;-7.064;2023-03-16T09:01:21;2.30;;;2.00;;
60239;SDS011;46102;39.012;-7.064;2023-03-16T09:03:22;4.97;;;2.38;;
60239;SDS011;46102;39.012;-7.064;2023-03-16T09:05:24;1.95;;;1.75;;
60239;SDS011;46102;39.012;-7.064;2023-03-16T09:07:24;4.00;;;2.90;;
60239;SDS011;46102;39.012;-7.064;2023-03-16T09:09:25;3.58;;;2.45;;
60239;SDS011;46102;39.012;-7.064;2023-03-16T09:11:26;3.08;;;2.15;;
60239;SDS011;46102;39.012;-7.064;2023-03-16T09:13:30;3.63;;;1.98;;
60239;SDS011;46102;39.012;-7.064;2023-03-16T09:15:32;2.47;;;2.25;;
60239;SDS011;46102;39.012;-7.064;2023-03-16T09:17:33;4.55;;;2.75;;
60239;SDS011;46102;39.012;-7.064;2023-03-16T09:19:34;3.78;;;2.25;;
60239;SDS011;46102;39.012;-7.064;2023-03-16T09:21:34;4.90;;;2.50;;
60239;SDS011;46102;39.012;-7.064;2023-03-16T09:23:35;3.53;;;2.40;;
60239;SDS011;46102;39.012;-7.064;2023-03-16T09:25:36;3.22;;;2.20;;
60239;SDS011;46102;39.012;-7.064;2023-03-16T09:27:37;4.35;;;2.33;;
60239;SDS011;46102;39.012;-7.064;2023-03-16T09:29:38;4.03;;;2.40;;
60239;SDS011;46102;39.012;-7.064;2023-03-16T09:31:40;4.80;;;2.50;;
60239;SDS011;46102;39.012;-7.064;2023-03-16T09:33:41;5.55;;;2.15;;
60239;SDS011;46102;39.012;-7.064;2023-03-16T09:35:42;3.65;;;2.30;;
60239;SDS011;46102;39.012;-7.064;2023-03-16T09:37:44;4.95;;;2.33;;
60239;SDS011;46102;39.012;-7.064;2023-03-16T09:39:45;2.63;;;2.33;;
60239;SDS011;46102;39.012;-7.064;2023-03-16T09:48:20;4.88;;;2.55;;
60239;SDS011;46102;39.012;-7.064;2023-03-16T09:50:27;4.68;;;2.08;;
60239;SDS011;46102;39.012;-7.064;2023-03-16T09:54:54;3.42;;;1.83;;
60239;SDS011;46102;39.012;-7.064;2023-03-16T09:56:56;1.92;;;1.70;;
60239;SDS011;46102;39.012;-7.064;2023-03-16T09:58:59;4.90;;;2.33;;
60239;SDS011;46102;39.012;-7.064;2023-03-16T10:03:47;5.93;;;2.42;;
60239;SDS011;46102;39.012;-7.064;2023-03-16T10:06:00;2.83;;;2.28;;
60239;SDS011;46102;39.012;-7.064;2023-03-16T10:10:27;2.95;;;2.00;;
60239;SDS011;46102;39.012;-7.064;2023-03-16T10:12:42;3.63;;;2.95;;
60239;SDS011;46102;39.012;-7.064;2023-03-16T10:17:00;7.57;;;2.92;;
60239;SDS011;46102;39.012;-7.064;2023-03-16T10:19:12;4.72;;;2.50;;
60239;SDS011;46102;39.012;-7.064;2023-03-16T10:21:17;2.33;;;2.13;;
60239;SDS011;46102;39.012;-7.064;2023-03-16T10:23:20;3.42;;;2.50;;
60239;SDS011;46102;39.012;-7.064;2023-03-16T10:25:29;4.90;;;2.40;;
60239;SDS011;46102;39.012;-7.064;2023-03-16T10:27:35;5.68;;;3.45;;
60239;SDS011;46102;39.012;-7.064;2023-03-16T10:29:37;2.80;;;2.20;;
60239;SDS011;46102;39.012;-7.064;2023-03-16T10:31:39;3.35;;;3.05;;
60239;SDS011;46102;39.012;-7.064;2023-03-16T10:33:41;3.35;;;2.33;;
60239;SDS011;46102;39.012;-7.064;2023-03-16T10:37:47;6.18;;;2.00;;
60239;SDS011;46102;39.012;-7.064;2023-03-16T10:39:48;4.05;;;2.03;;
60239;SDS011;46102;39.012;-7.064;2023-03-16T10:41:53;9.95;;;2.90;;
60239;SDS011;46102;39.012;-7.064;2023-03-16T10:46:02;4.47;;;4.05;;
60239;SDS011;46102;39.012;-7.064;2023-03-16T10:48:13;13.23;;;2.75;;
60239;SDS011;46102;39.012;-7.064;2023-03-16T10:50:22;4.28;;;2.42;;
60239;SDS011;46102;39.012;-7.064;2023-03-16T10:54:32;8.38;;;4.00;;
60239;SDS011;46102;39.012;-7.064;2023-03-16T10:56:36;2.75;;;2.20;;
60239;SDS011;46102;39.012;-7.064;2023-03-16T10:58:41;3.30;;;2.47;;
60239;SDS011;46102;39.012;-7.064;2023-03-16T11:00:42;6.75;;;2.70;;
60239;SDS011;46102;39.012;-7.064;2023-03-16T11:02:46;10.55;;;2.95;;
60239;SDS011;46102;39.012;-7.064;2023-03-16T11:04:48;8.13;;;2.72;;
60239;SDS011;46102;39.012;-7.064;2023-03-16T11:06:53;11.93;;;2.70;;
60239;SDS011;46102;39.012;-7.064;2023-03-16T11:09:09;3.53;;;2.55;;
60239;SDS011;46102;39.012;-7.064;2023-03-16T11:11:15;5.15;;;2.72;;
60239;SDS011;46102;39.012;-7.064;2023-03-16T11:13:19;9.40;;;2.90;;
60239;SDS011;46102;39.012;-7.064;2023-03-16T11:15:20;5.53;;;2.30;;
60239;SDS011;46102;39.012;-7.064;2023-03-16T11:17:23;4.65;;;2.25;;
60239;SDS011;46102;39.012;-7.064;2023-03-16T11:19:41;8.73;;;2.65;;
60239;SDS011;46102;39.012;-7.064;2023-03-16T11:21:55;3.70;;;2.60;;
60239;SDS011;46102;39.012;-7.064;2023-03-16T11:24:00;6.50;;;3.03;;
60239;SDS011;46102;39.012;-7.064;2023-03-16T11:26:04;7.50;;;2.42;;
60239;SDS011;46102;39.012;-7.064;2023-03-16T11:30:28;5.20;;;2.08;;
60239;SDS011;46102;39.012;-7.064;2023-03-16T11:32:38;7.20;;;2.10;;
60239;SDS011;46102;39.012;-7.064;2023-03-16T11:34:48;5.47;;;2.63;;
60239;SDS011;46102;39.012;-7.064;2023-03-16T11:36:53;4.13;;;2.60;;
60239;SDS011;46102;39.012;-7.064;2023-03-16T11:39:06;6.20;;;2.35;;
60239;SDS011;46102;39.012;-7.064;2023-03-16T11:41:27;5.72;;;3.42;;
60239;SDS011;46102;39.012;-7.064;2023-03-16T11:43:49;5.38;;;3.15;;
60239;SDS011;46102;39.012;-7.064;2023-03-16T11:57:27;4.13;;;2.33;;
60239;SDS011;46102;39.012;-7.064;2023-03-16T11:59:42;6.17;;;2.40;;
60239;SDS011;46102;39.012;-7.064;2023-03-16T12:04:21;4.93;;;1.75;;
60239;SDS011;46102;39.012;-7.064;2023-03-16T12:06:34;5.82;;;1.95;;
60239;SDS011;46102;39.012;-7.064;2023-03-16T12:11:15;7.50;;;2.30;;
60239;SDS011;46102;39.012;-7.064;2023-03-16T12:13:33;8.80;;;2.28;;
60239;SDS011;46102;39.012;-7.064;2023-03-16T12:15:40;3.55;;;2.42;;
60239;SDS011;46102;39.012;-7.064;2023-03-16T12:17:47;3.42;;;1.50;;
60239;SDS011;46102;39.012;-7.064;2023-03-16T12:19:55;5.50;;;1.80;;
60239;SDS011;46102;39.012;-7.064;2023-03-16T12:22:08;6.55;;;1.52;;
60239;SDS011;46102;39.012;-7.064;2023-03-16T12:24:18;3.30;;;2.10;;
60239;SDS011;46102;39.012;-7.064;2023-03-16T12:26:26;4.90;;;1.63;;
60239;SDS011;46102;39.012;-7.064;2023-03-16T12:28:30;3.78;;;1.30;;
60239;SDS011;46102;39.012;-7.064;2023-03-16T12:30:51;7.80;;;1.90;;
60239;SDS011;46102;39.012;-7.064;2023-03-16T12:37:18;2.85;;;1.48;;
60239;SDS011;46102;39.012;-7.064;2023-03-16T12:46:10;2.53;;;1.60;;
60239;SDS011;46102;39.012;-7.064;2023-03-16T12:50:48;7.10;;;1.35;;
60239;SDS011;46102;39.012;-7.064;2023-03-16T12:52:51;2.08;;;1.10;;
60239;SDS011;46102;39.012;-7.064;2023-03-16T12:54:53;10.40;;;1.60;;
60239;SDS011;46102;39.012;-7.064;2023-03-16T12:57:07;2.75;;;1.60;;
60239;SDS011;46102;39.012;-7.064;2023-03-16T12:59:16;3.95;;;1.55;;
60239;SDS011;46102;39.012;-7.064;2023-03-16T13:01:23;5.30;;;2.15;;
60239;SDS011;46102;39.012;-7.064;2023-03-16T13:03:27;3.70;;;1.58;;
60239;SDS011;46102;39.012;-7.064;2023-03-16T13:05:30;1.77;;;1.33;;
60239;SDS011;46102;39.012;-7.064;2023-03-16T13:07:32;5.22;;;1.50;;
60239;SDS011;46102;39.012;-7.064;2023-03-16T13:09:34;2.08;;;1.25;;
60239;SDS011;46102;39.012;-7.064;2023-03-16T13:11:42;1.42;;;0.93;;
60239;SDS011;46102;39.012;-7.064;2023-03-16T13:16:03;4.50;;;1.58;;
60239;SDS011;46102;39.012;-7.064;2023-03-16T13:22:24;3.95;;;1.50;;
60239;SDS011;46102;39.012;-7.064;2023-03-16T13:24:33;5.07;;;1.42;;
60239;SDS011;46102;39.012;-7.064;2023-03-16T13:26:45;2.28;;;1.50;;
60239;SDS011;46102;39.012;-7.064;2023-03-16T13:28:49;2.28;;;1.55;;
60239;SDS011;46102;39.012;-7.064;2023-03-16T13:30:52;4.93;;;2.00;;